Time;durP1;ratioP1;P1;durP2;ratioP2;P2;SDS_P1;SDS_P2;PMS_P1;PMS_P2;Temp;Humidity;BMP_temperature;BMP_pressure;BME280_temperature;BME280_humidity;BME280_pressure;Samples;Min_cycle;Max_cycle;Signal;HPM_P1;HPM_P2
2022/03/16 00:01:53;;;;;;;0.05;0.05;;;;;;;;;;4920909;29;20043;-91
2022/03/16 00:04:19;;;;;;;0.10;0.10;;;;;;;;;;4920755;29;20059;-91
2022/03/16 00:06:45;;;;;;;0.10;0.10;;;;;;;;;;4920730;29;20040;-90
2022/03/16 00:09:11;;;;;;;0.15;0.10;;;;;;;;;;4920670;29;20051;-91
2022/03/16 00:11:37;;;;;;;0.10;0.10;;;;;;;;;;4921037;29;20050;-91
2022/03/16 00:14:03;;;;;;;0.10;0.10;;;;;;;;;;4936870;29;20474;-91
2022/03/16 00:16:29;;;;;;;0.10;0.10;;;;;;;;;;4920155;29;20039;-91
2022/03/16 00:18:55;;;;;;;0.10;0.10;;;;;;;;;;4935841;29;20388;-91
2022/03/16 00:21:21;;;;;;;0.10;0.10;;;;;;;;;;4920643;29;20075;-91
2022/03/16 00:23:48;;;;;;;0.10;0.10;;;;;;;;;;4920551;29;20514;-92
2022/03/16 00:26:14;;;;;;;0.10;0.10;;;;;;;;;;4920916;29;20044;-92
2022/03/16 00:28:40;;;;;;;0.10;0.10;;;;;;;;;;4920599;29;20377;-93
2022/03/16 00:31:06;;;;;;;0.10;0.10;;;;;;;;;;4920947;29;20130;-91
2022/03/16 00:33:32;;;;;;;0.10;0.10;;;;;;;;;;4920154;29;20040;-92
2022/03/16 00:35:58;;;;;;;0.10;0.10;;;;;;;;;;4920449;29;20134;-91
2022/03/16 00:38:24;;;;;;;0.10;0.10;;;;;;;;;;4920479;29;20138;-92
2022/03/16 00:40:50;;;;;;;0.60;0.20;;;;;;;;;;4920210;29;20387;-91
2022/03/16 00:43:16;;;;;;;0.10;0.10;;;;;;;;;;4920393;29;20040;-92
2022/03/16 00:45:42;;;;;;;0.10;0.10;;;;;;;;;;4935930;29;20103;-92
2022/03/16 00:48:09;;;;;;;0.10;0.10;;;;;;;;;;4920306;29;20395;-92
2022/03/16 00:50:37;;;;;;;0.10;0.10;;;;;;;;;;4920401;29;20050;-92
2022/03/16 00:53:03;;;;;;;0.15;0.15;;;;;;;;;;4920338;29;20051;-92
2022/03/16 00:55:29;;;;;;;0.10;0.10;;;;;;;;;;4920151;29;20043;-92
2022/03/16 00:57:55;;;;;;;0.25;0.25;;;;;;;;;;4919690;29;20460;-91
2022/03/16 01:00:21;;;;;;;0.10;0.10;;;;;;;;;;4919851;29;20044;-91
2022/03/16 01:02:47;;;;;;;0.13;0.13;;;;;;;;;;4920319;29;20067;-92
2022/03/16 01:05:13;;;;;;;0.32;0.25;;;;;;;;;;4919910;29;20507;-93
2022/03/16 01:07:39;;;;;;;0.20;0.20;;;;;;;;;;4935776;29;20051;-91
2022/03/16 01:10:06;;;;;;;0.10;0.10;;;;;;;;;;4919964;29;20044;-90
2022/03/16 01:12:31;;;;;;;0.10;0.10;;;;;;;;;;4920058;29;20039;-92
2022/03/16 01:14:58;;;;;;;0.10;0.10;;;;;;;;;;4919788;29;20047;-92
2022/03/16 01:17:24;;;;;;;0.10;0.10;;;;;;;;;;4920065;29;20442;-91
2022/03/16 01:19:51;;;;;;;0.10;0.10;;;;;;;;;;4919855;29;20161;-92
2022/03/16 01:22:16;;;;;;;0.32;0.20;;;;;;;;;;4919708;29;20058;-91
2022/03/16 01:24:42;;;;;;;0.10;0.10;;;;;;;;;;4919769;29;20047;-92
2022/03/16 01:27:08;;;;;;;0.10;0.10;;;;;;;;;;4919664;29;20052;-91
2022/03/16 01:29:34;;;;;;;0.10;0.10;;;;;;;;;;4919839;29;20152;-92
2022/03/16 01:32:00;;;;;;;0.30;0.30;;;;;;;;;;4919853;29;20073;-92
2022/03/16 01:34:26;;;;;;;0.30;0.30;;;;;;;;;;4919075;29;20507;-89
2022/03/16 01:36:52;;;;;;;0.00;0.00;;;;;;;;;;4918420;29;20051;-89
2022/03/16 01:39:18;;;;;;;0.22;0.22;;;;;;;;;;4919243;29;20047;-90
2022/03/16 01:41:45;;;;;;;0.10;0.10;;;;;;;;;;4934569;29;20051;-89
2022/03/16 01:44:11;;;;;;;0.10;0.10;;;;;;;;;;4919078;29;20069;-90
2022/03/16 01:46:37;;;;;;;0.35;0.35;;;;;;;;;;4918477;29;20119;-90
2022/03/16 01:49:04;;;;;;;2.13;0.38;;;;;;;;;;4919146;29;20046;-90
2022/03/16 01:51:30;;;;;;;0.10;0.10;;;;;;;;;;4919100;29;20050;-91
2022/03/16 01:53:55;;;;;;;0.10;0.10;;;;;;;;;;4919390;29;20044;-90
2022/03/16 01:56:21;;;;;;;0.10;0.10;;;;;;;;;;4919180;29;20415;-91
2022/03/16 01:58:49;;;;;;;0.00;0.00;;;;;;;;;;4919464;29;20047;-91
2022/03/16 02:01:15;;;;;;;0.10;0.10;;;;;;;;;;4919275;29;20054;-91
2022/03/16 02:03:41;;;;;;;0.10;0.10;;;;;;;;;;4919175;29;20391;-91
2022/03/16 02:06:08;;;;;;;0.28;0.28;;;;;;;;;;4919039;29;20131;-91
2022/03/16 02:08:35;;;;;;;0.10;0.10;;;;;;;;;;4934863;29;20480;-91
2022/03/16 02:11:01;;;;;;;0.10;0.10;;;;;;;;;;4918862;29;20075;-91
2022/03/16 02:13:27;;;;;;;0.10;0.10;;;;;;;;;;4918774;29;20487;-90
2022/03/16 02:15:53;;;;;;;0.10;0.10;;;;;;;;;;4918630;29;20130;-90
2022/03/16 02:18:19;;;;;;;0.10;0.10;;;;;;;;;;4918369;29;20051;-91
2022/03/16 02:20:47;;;;;;;0.10;0.10;;;;;;;;;;4918881;29;20040;-91
2022/03/16 02:23:13;;;;;;;0.10;0.10;;;;;;;;;;4919018;29;20039;-91
2022/03/16 02:25:49;;;;;;;0.10;0.10;;;;;;;;;;4918760;29;20523;-90
2022/03/16 02:28:15;;;;;;;0.10;0.10;;;;;;;;;;4919107;29;20428;-91
2022/03/16 02:30:42;;;;;;;0.00;0.00;;;;;;;;;;4919025;29;20052;-91
2022/03/16 02:33:08;;;;;;;0.10;0.10;;;;;;;;;;4919063;29;20044;-91
2022/03/16 02:35:34;;;;;;;0.10;0.10;;;;;;;;;;4918816;29;20046;-92
2022/03/16 02:38:00;;;;;;;0.10;0.10;;;;;;;;;;4918704;29;20512;-91
2022/03/16 02:40:26;;;;;;;0.20;0.20;;;;;;;;;;4918712;29;20050;-91
2022/03/16 02:42:52;;;;;;;0.30;0.30;;;;;;;;;;4919083;29;20082;-92
2022/03/16 02:45:18;;;;;;;0.10;0.10;;;;;;;;;;4919177;29;20055;-92
2022/03/16 02:47:44;;;;;;;0.10;0.10;;;;;;;;;;4919296;29;20048;-92
2022/03/16 02:50:10;;;;;;;0.10;0.10;;;;;;;;;;4919296;29;20095;-93
2022/03/16 02:52:37;;;;;;;0.10;0.10;;;;;;;;;;4919193;29;20039;-92
2022/03/16 02:55:04;;;;;;;0.10;0.10;;;;;;;;;;4918851;29;20047;-91
2022/03/16 02:57:30;;;;;;;0.10;0.10;;;;;;;;;;4935703;29;20091;-91
2022/03/16 02:59:56;;;;;;;0.10;0.10;;;;;;;;;;4921408;29;20067;-91
2022/03/16 03:02:22;;;;;;;0.10;0.10;;;;;;;;;;4922007;29;20050;-91
2022/03/16 03:04:48;;;;;;;0.00;0.00;;;;;;;;;;4922031;29;20095;-92
2022/03/16 03:07:14;;;;;;;0.10;0.10;;;;;;;;;;4924484;29;21092;-91
2022/03/16 03:09:40;;;;;;;0.00;0.00;;;;;;;;;;4925170;29;20043;-91
2022/03/16 03:12:06;;;;;;;0.00;0.00;;;;;;;;;;4925238;29;20039;-91
2022/03/16 03:14:32;;;;;;;0.00;0.00;;;;;;;;;;4925178;28;20043;-93
2022/03/16 03:16:58;;;;;;;0.10;0.10;;;;;;;;;;4941203;29;20057;-92
2022/03/16 03:19:24;;;;;;;0.10;0.10;;;;;;;;;;4925318;29;20130;-92
2022/03/16 03:21:50;;;;;;;0.10;0.10;;;;;;;;;;4929210;29;20073;-92
2022/03/16 03:24:16;;;;;;;0.10;0.10;;;;;;;;;;4929709;29;20363;-91
2022/03/16 03:26:42;;;;;;;0.10;0.10;;;;;;;;;;4928300;29;20046;-92
2022/03/16 03:29:08;;;;;;;0.10;0.10;;;;;;;;;;4927764;29;20039;-92
2022/03/16 03:31:34;;;;;;;0.10;0.10;;;;;;;;;;4925226;29;20043;-92
2022/03/16 03:34:01;;;;;;;0.10;0.10;;;;;;;;;;4924945;29;20043;-91
2022/03/16 03:36:27;;;;;;;0.00;0.00;;;;;;;;;;4924945;29;20043;-93
2022/03/16 03:38:52;;;;;;;0.10;0.10;;;;;;;;;;4923946;29;20066;-90
2022/03/16 03:41:18;;;;;;;0.10;0.10;;;;;;;;;;4924424;29;20075;-90
2022/03/16 03:43:44;;;;;;;0.10;0.10;;;;;;;;;;4924665;29;20043;-92
2022/03/16 03:46:10;;;;;;;0.10;0.10;;;;;;;;;;4924612;29;20047;-91
2022/03/16 03:48:36;;;;;;;0.10;0.10;;;;;;;;;;4924307;29;20396;-91
2022/03/16 03:51:02;;;;;;;0.20;0.20;;;;;;;;;;4924202;29;20039;-92
2022/03/16 03:53:28;;;;;;;0.10;0.10;;;;;;;;;;4924412;29;20035;-92
2022/03/16 03:55:54;;;;;;;0.10;0.10;;;;;;;;;;4924413;29;20125;-91
2022/03/16 03:58:20;;;;;;;0.10;0.10;;;;;;;;;;4924490;29;20055;-93
2022/03/16 04:00:46;;;;;;;0.10;0.10;;;;;;;;;;4924590;29;20134;-92
2022/03/16 04:03:12;;;;;;;0.10;0.10;;;;;;;;;;4924404;29;20046;-92
2022/03/16 04:05:38;;;;;;;0.10;0.10;;;;;;;;;;4923980;29;20086;-91
2022/03/16 04:08:04;;;;;;;0.10;0.10;;;;;;;;;;4923975;29;20051;-92
2022/03/16 04:10:30;;;;;;;0.10;0.10;;;;;;;;;;4924181;29;20483;-91
2022/03/16 04:12:57;;;;;;;0.00;0.00;;;;;;;;;;4924302;29;20058;-92
2022/03/16 04:15:22;;;;;;;0.10;0.10;;;;;;;;;;4924100;29;20558;-92
2022/03/16 04:17:48;;;;;;;0.10;0.10;;;;;;;;;;4923336;29;20135;-90
2022/03/16 04:20:14;;;;;;;0.10;0.10;;;;;;;;;;4923795;29;20487;-91
2022/03/16 04:22:40;;;;;;;0.20;0.20;;;;;;;;;;4923765;29;20422;-91
2022/03/16 04:25:07;;;;;;;0.10;0.10;;;;;;;;;;4923553;29;20051;-90
2022/03/16 04:27:33;;;;;;;0.30;0.30;;;;;;;;;;4923924;29;20049;-91
2022/03/16 04:29:59;;;;;;;0.00;0.00;;;;;;;;;;4923505;29;20102;-90
2022/03/16 04:32:25;;;;;;;0.10;0.10;;;;;;;;;;4923580;29;20039;-92
2022/03/16 04:34:50;;;;;;;0.10;0.10;;;;;;;;;;4923876;29;20142;-91
2022/03/16 04:37:16;;;;;;;0.17;0.17;;;;;;;;;;4923620;29;20481;-92
2022/03/16 04:39:42;;;;;;;0.10;0.10;;;;;;;;;;4923899;29;20043;-92
2022/03/16 04:42:08;;;;;;;0.10;0.10;;;;;;;;;;4923887;29;20043;-92
2022/03/16 04:44:34;;;;;;;0.05;0.05;;;;;;;;;;4923414;28;20393;-92
2022/03/16 04:47:00;;;;;;;0.10;0.10;;;;;;;;;;4923766;29;20135;-91
2022/03/16 04:49:26;;;;;;;0.10;0.10;;;;;;;;;;4939184;29;20042;-91
2022/03/16 04:51:52;;;;;;;0.10;0.10;;;;;;;;;;4923615;29;20329;-92
2022/03/16 04:54:18;;;;;;;0.10;0.10;;;;;;;;;;4923634;29;20043;-90
2022/03/16 04:56:44;;;;;;;0.10;0.10;;;;;;;;;;4922651;29;20042;-91
2022/03/16 04:59:11;;;;;;;0.10;0.10;;;;;;;;;;4923374;29;20411;-92
2022/03/16 05:01:37;;;;;;;0.10;0.10;;;;;;;;;;4938811;29;20043;-90
2022/03/16 05:04:03;;;;;;;0.10;0.10;;;;;;;;;;4939512;29;20120;-90
2022/03/16 05:06:30;;;;;;;0.00;0.00;;;;;;;;;;4923094;29;20102;-94
2022/03/16 05:08:56;;;;;;;0.00;0.00;;;;;;;;;;4939648;29;20052;-92
2022/03/16 05:11:22;;;;;;;0.03;0.03;;;;;;;;;;4923053;29;20420;-92
2022/03/16 05:13:49;;;;;;;0.13;0.13;;;;;;;;;;4922926;29;20479;-91
2022/03/16 05:16:16;;;;;;;0.10;0.10;;;;;;;;;;4922686;29;20039;-92
2022/03/16 05:18:44;;;;;;;0.10;0.10;;;;;;;;;;4921593;29;20495;-91
2022/03/16 05:21:10;;;;;;;0.10;0.10;;;;;;;;;;4922789;29;20126;-93
2022/03/16 05:23:36;;;;;;;0.10;0.10;;;;;;;;;;4923014;29;20043;-92
2022/03/16 05:26:03;;;;;;;0.10;0.10;;;;;;;;;;4922851;29;20077;-92
2022/03/16 05:28:29;;;;;;;0.10;0.10;;;;;;;;;;4923028;29;20133;-93
2022/03/16 05:30:54;;;;;;;0.10;0.10;;;;;;;;;;4923071;29;20031;-93
2022/03/16 05:33:22;;;;;;;0.10;0.10;;;;;;;;;;4923719;29;20121;-94
2022/03/16 05:35:48;;;;;;;0.10;0.10;;;;;;;;;;4923049;29;20039;-91
2022/03/16 05:38:14;;;;;;;0.10;0.10;;;;;;;;;;4922173;29;20035;-92
2022/03/16 05:40:40;;;;;;;0.10;0.10;;;;;;;;;;4923197;29;20267;-91
2022/03/16 05:43:06;;;;;;;0.10;0.10;;;;;;;;;;4922941;29;20043;-92
2022/03/16 05:45:33;;;;;;;0.10;0.10;;;;;;;;;;4922913;29;20043;-92
2022/03/16 05:47:59;;;;;;;0.10;0.10;;;;;;;;;;4922345;29;20039;-91
2022/03/16 05:50:28;;;;;;;0.05;0.05;;;;;;;;;;4922721;29;20476;-92
2022/03/16 05:52:54;;;;;;;0.03;0.03;;;;;;;;;;4923265;29;20039;-92
2022/03/16 05:55:20;;;;;;;0.10;0.10;;;;;;;;;;4923069;29;20130;-92
2022/03/16 05:57:46;;;;;;;0.10;0.10;;;;;;;;;;4923006;29;20093;-92
2022/03/16 06:00:14;;;;;;;0.10;0.10;;;;;;;;;;4922402;29;20043;-92
2022/03/16 06:02:41;;;;;;;0.10;0.10;;;;;;;;;;4923130;29;20121;-91
2022/03/16 06:05:09;;;;;;;0.00;0.00;;;;;;;;;;4922543;29;20047;-92
2022/03/16 06:07:36;;;;;;;0.10;0.10;;;;;;;;;;4922514;29;20055;-92
2022/03/16 06:10:02;;;;;;;0.20;0.15;;;;;;;;;;4923231;29;20086;-95
2022/03/16 06:12:30;;;;;;;0.10;0.10;;;;;;;;;;4923155;29;20130;-93
2022/03/16 06:14:56;;;;;;;0.10;0.10;;;;;;;;;;4922659;29;20494;-95
2022/03/16 06:17:23;;;;;;;0.30;0.30;;;;;;;;;;4923216;29;20050;-94
2022/03/16 06:19:49;;;;;;;0.20;0.20;;;;;;;;;;4922527;29;20046;-94
2022/03/16 06:22:15;;;;;;;0.22;0.15;;;;;;;;;;4922784;29;20039;-94
2022/03/16 06:24:41;;;;;;;0.35;0.35;;;;;;;;;;4938536;28;20558;-94
2022/03/16 06:27:07;;;;;;;0.10;0.10;;;;;;;;;;4922801;29;20043;-94
2022/03/16 06:29:33;;;;;;;0.10;0.10;;;;;;;;;;4922336;29;20043;-93
2022/03/16 06:31:59;;;;;;;0.00;0.00;;;;;;;;;;4923297;29;20043;-92
2022/03/16 06:34:25;;;;;;;0.00;0.00;;;;;;;;;;4926280;29;20047;-92
2022/03/16 06:36:51;;;;;;;0.10;0.10;;;;;;;;;;4926380;29;20518;-93
2022/03/16 06:39:17;;;;;;;0.05;0.05;;;;;;;;;;4926227;29;20043;-91
2022/03/16 06:41:43;;;;;;;0.10;0.10;;;;;;;;;;4925784;29;20126;-92
2022/03/16 06:44:09;;;;;;;0.10;0.10;;;;;;;;;;4926054;29;20051;-92
2022/03/16 06:46:37;;;;;;;0.10;0.10;;;;;;;;;;4926322;29;20039;-92
2022/03/16 06:49:03;;;;;;;0.10;0.10;;;;;;;;;;4925547;29;20043;-91
2022/03/16 06:51:29;;;;;;;0.10;0.10;;;;;;;;;;4926382;29;20137;-92
2022/03/16 06:53:55;;;;;;;0.10;0.10;;;;;;;;;;4925997;29;20043;-91
2022/03/16 06:56:20;;;;;;;0.00;0.00;;;;;;;;;;4926022;29;20130;-91
2022/03/16 06:58:46;;;;;;;0.00;0.00;;;;;;;;;;4925304;29;20043;-91
2022/03/16 07:01:13;;;;;;;0.10;0.10;;;;;;;;;;4925945;29;20078;-91
2022/03/16 07:03:38;;;;;;;1.38;0.40;;;;;;;;;;4925625;29;20047;-91
2022/03/16 07:06:04;;;;;;;0.10;0.10;;;;;;;;;;4925542;29;20043;-91
2022/03/16 07:08:30;;;;;;;0.10;0.10;;;;;;;;;;4922502;29;20055;-91
2022/03/16 07:10:56;;;;;;;0.10;0.10;;;;;;;;;;4921871;29;20153;-90
2022/03/16 07:13:22;;;;;;;0.10;0.10;;;;;;;;;;4922249;29;20047;-91
2022/03/16 07:15:48;;;;;;;0.00;0.00;;;;;;;;;;4922444;29;20044;-92
2022/03/16 07:18:16;;;;;;;0.10;0.10;;;;;;;;;;4922456;29;20530;-92
2022/03/16 07:20:42;;;;;;;0.10;0.10;;;;;;;;;;4922471;29;20044;-92
2022/03/16 07:23:12;;;;;;;0.00;0.00;;;;;;;;;;4938423;29;20054;-91
2022/03/16 07:25:38;;;;;;;0.00;0.00;;;;;;;;;;4922414;29;20040;-92
2022/03/16 07:28:04;;;;;;;0.00;0.00;;;;;;;;;;4922479;29;20059;-91
2022/03/16 07:30:30;;;;;;;0.20;0.20;;;;;;;;;;4921819;29;20479;-92
2022/03/16 07:32:56;;;;;;;0.00;0.00;;;;;;;;;;4921907;29;20095;-92
2022/03/16 07:35:26;;;;;;;0.00;0.00;;;;;;;;;;4921544;29;20427;-92
2022/03/16 07:37:52;;;;;;;0.10;0.10;;;;;;;;;;4922248;29;20082;-92
2022/03/16 07:40:18;;;;;;;0.10;0.10;;;;;;;;;;4920876;29;20066;-92
2022/03/16 07:42:45;;;;;;;0.00;0.00;;;;;;;;;;4921277;29;20087;-92
2022/03/16 07:45:11;;;;;;;0.00;0.00;;;;;;;;;;4921459;29;20085;-93
2022/03/16 07:47:37;;;;;;;0.30;0.30;;;;;;;;;;4921484;29;20067;-92
2022/03/16 07:50:03;;;;;;;0.10;0.10;;;;;;;;;;4921560;29;20044;-92
2022/03/16 07:52:30;;;;;;;0.00;0.00;;;;;;;;;;4921554;29;20083;-93
2022/03/16 07:54:56;;;;;;;0.08;0.08;;;;;;;;;;4921706;29;20039;-92
2022/03/16 07:57:22;;;;;;;0.10;0.10;;;;;;;;;;4921453;29;20074;-93
2022/03/16 07:59:48;;;;;;;0.10;0.10;;;;;;;;;;4921539;29;20126;-91
2022/03/16 08:02:17;;;;;;;0.10;0.10;;;;;;;;;;4921660;29;20044;-93
2022/03/16 08:04:43;;;;;;;0.20;0.20;;;;;;;;;;4920818;29;20040;-92
2022/03/16 08:07:12;;;;;;;0.00;0.00;;;;;;;;;;4922904;29;20040;-92
2022/03/16 08:09:38;;;;;;;0.10;0.10;;;;;;;;;;4924081;29;20039;-91
2022/03/16 08:12:04;;;;;;;0.00;0.00;;;;;;;;;;4924751;29;20046;-92
2022/03/16 08:14:30;;;;;;;0.28;0.28;;;;;;;;;;4924560;28;20175;-91
2022/03/16 08:16:56;;;;;;;0.10;0.10;;;;;;;;;;4924559;29;20043;-91
2022/03/16 08:19:22;;;;;;;0.10;0.10;;;;;;;;;;4924064;29;20191;-91
2022/03/16 08:21:48;;;;;;;0.20;0.20;;;;;;;;;;4923314;29;20078;-91
2022/03/16 08:24:14;;;;;;;0.10;0.10;;;;;;;;;;4923806;29;20137;-91
2022/03/16 08:26:40;;;;;;;0.10;0.10;;;;;;;;;;4924104;29;20042;-91
2022/03/16 08:29:07;;;;;;;0.20;0.20;;;;;;;;;;4924525;29;20047;-91
2022/03/16 08:31:33;;;;;;;0.20;0.20;;;;;;;;;;4923895;29;20584;-91
2022/03/16 08:34:01;;;;;;;0.20;0.20;;;;;;;;;;4923475;29;20043;-92
2022/03/16 08:36:27;;;;;;;0.32;0.32;;;;;;;;;;4923669;29;20126;-92
2022/03/16 08:38:54;;;;;;;0.35;0.35;;;;;;;;;;4923805;29;20142;-92
2022/03/16 08:41:20;;;;;;;0.10;0.10;;;;;;;;;;4939834;29;20126;-91
2022/03/16 08:43:46;;;;;;;0.13;0.13;;;;;;;;;;4939107;29;20074;-92
2022/03/16 08:46:12;;;;;;;0.20;0.20;;;;;;;;;;4938444;29;20040;-92
2022/03/16 08:48:38;;;;;;;0.10;0.10;;;;;;;;;;4923236;29;20035;-90
2022/03/16 08:51:06;;;;;;;1.35;0.25;;;;;;;;;;4938999;29;20035;-92
2022/03/16 08:53:32;;;;;;;0.08;0.08;;;;;;;;;;4924471;29;20039;-91
2022/03/16 08:55:59;;;;;;;0.20;0.20;;;;;;;;;;4938164;29;20043;-91
2022/03/16 08:58:25;;;;;;;0.43;0.35;;;;;;;;;;4939026;29;20101;-91
2022/03/16 09:00:51;;;;;;;1.23;0.17;;;;;;;;;;4922625;29;20260;-88
2022/03/16 09:03:17;;;;;;;0.22;0.22;;;;;;;;;;4922427;29;20047;-90
2022/03/16 09:05:43;;;;;;;0.57;0.32;;;;;;;;;;4922830;29;20050;-88
2022/03/16 09:08:09;;;;;;;0.38;0.38;;;;;;;;;;4922420;29;20086;-88
2022/03/16 09:10:35;;;;;;;0.20;0.20;;;;;;;;;;4923007;29;20046;-89
2022/03/16 09:13:04;;;;;;;0.25;0.25;;;;;;;;;;4922676;29;20054;-89
2022/03/16 09:15:30;;;;;;;0.10;0.10;;;;;;;;;;4923088;29;20089;-90
2022/03/16 09:17:56;;;;;;;0.20;0.20;;;;;;;;;;4938405;29;20487;-90
2022/03/16 09:20:22;;;;;;;0.20;0.20;;;;;;;;;;4922967;29;20070;-93
2022/03/16 09:22:48;;;;;;;0.15;0.15;;;;;;;;;;4923877;29;20047;-93
2022/03/16 09:25:14;;;;;;;0.28;0.28;;;;;;;;;;4924586;29;20122;-90
2022/03/16 09:27:40;;;;;;;0.20;0.20;;;;;;;;;;4922842;29;20055;-90
2022/03/16 09:30:06;;;;;;;0.30;0.30;;;;;;;;;;4922672;29;20042;-90
2022/03/16 09:32:33;;;;;;;0.10;0.10;;;;;;;;;;4939033;29;20443;-90
2022/03/16 09:34:59;;;;;;;0.10;0.10;;;;;;;;;;4922802;29;20114;-92
2022/03/16 09:37:25;;;;;;;0.10;0.10;;;;;;;;;;4922667;29;20074;-89
2022/03/16 09:39:51;;;;;;;0.10;0.10;;;;;;;;;;4922913;29;20525;-88
2022/03/16 09:42:20;;;;;;;0.30;0.30;;;;;;;;;;4921765;29;20039;-89
2022/03/16 09:44:46;;;;;;;0.13;0.13;;;;;;;;;;4923232;28;20491;-90
2022/03/16 09:47:12;;;;;;;0.22;0.22;;;;;;;;;;4922076;29;20119;-88
2022/03/16 09:49:38;;;;;;;1.17;0.40;;;;;;;;;;4921947;29;20039;-87
2022/03/16 09:52:07;;;;;;;0.52;0.52;;;;;;;;;;4937573;29;20040;-89
2022/03/16 09:54:33;;;;;;;0.57;0.57;;;;;;;;;;4922068;28;20047;-89
2022/03/16 09:56:59;;;;;;;2.03;0.43;;;;;;;;;;4921837;29;20043;-88
2022/03/16 09:59:25;;;;;;;1.25;0.38;;;;;;;;;;4922154;29;20098;-89
2022/03/16 10:01:57;;;;;;;0.17;0.17;;;;;;;;;;4921866;29;20403;-89
2022/03/16 10:04:33;;;;;;;0.80;0.80;;;;;;;;;;4922309;29;20043;-91
2022/03/16 10:07:00;;;;;;;0.20;0.20;;;;;;;;;;4924825;29;20047;-91
2022/03/16 10:15:12;;;;;;;0.22;0.22;;;;;;;;;;4927845;29;20474;-91
2022/03/16 10:17:44;;;;;;;0.35;0.35;;;;;;;;;;4925960;29;20047;-89
2022/03/16 10:20:20;;;;;;;0.22;0.22;;;;;;;;;;4926158;29;20047;-90
2022/03/16 10:23:04;;;;;;;0.30;0.30;;;;;;;;;;4941784;29;20047;-89
2022/03/16 10:25:32;;;;;;;0.10;0.10;;;;;;;;;;4925508;29;20039;-89
2022/03/16 10:28:10;;;;;;;0.52;0.30;;;;;;;;;;4925206;29;20399;-89
2022/03/16 10:30:36;;;;;;;0.20;0.20;;;;;;;;;;4926496;29;20039;-89
2022/03/16 10:33:02;;;;;;;0.25;0.20;;;;;;;;;;4925080;29;20046;-89
2022/03/16 10:35:28;;;;;;;0.68;0.68;;;;;;;;;;4925322;29;20042;-90
2022/03/16 10:38:06;;;;;;;0.20;0.20;;;;;;;;;;4925526;29;20047;-90
2022/03/16 10:40:32;;;;;;;0.50;0.50;;;;;;;;;;4925783;29;20067;-90
2022/03/16 10:48:27;;;;;;;0.98;0.75;;;;;;;;;;4927792;29;20071;-90
2022/03/16 10:50:57;;;;;;;0.30;0.30;;;;;;;;;;4925475;29;20047;-90
2022/03/16 10:53:33;;;;;;;0.47;0.40;;;;;;;;;;4925562;29;20050;-90
2022/03/16 10:55:59;;;;;;;0.30;0.30;;;;;;;;;;4926685;29;20486;-89
2022/03/16 10:58:25;;;;;;;0.13;0.13;;;;;;;;;;4925356;29;20043;-91
2022/03/16 11:00:52;;;;;;;0.75;0.75;;;;;;;;;;4925331;29;20135;-90
2022/03/16 11:03:18;;;;;;;0.32;0.32;;;;;;;;;;4925796;29;20475;-93
2022/03/16 11:05:44;;;;;;;0.45;0.30;;;;;;;;;;4925910;29;20043;-91
2022/03/16 11:08:10;;;;;;;0.25;0.25;;;;;;;;;;4925767;29;20212;-91
2022/03/16 11:10:37;;;;;;;0.28;0.28;;;;;;;;;;4925679;29;20047;-89
2022/03/16 11:15:50;;;;;;;0.28;0.28;;;;;;;;;;4927864;29;20137;-93
2022/03/16 11:18:19;;;;;;;0.17;0.17;;;;;;;;;;4924186;29;20200;-91
2022/03/16 11:20:49;;;;;;;0.10;0.10;;;;;;;;;;4925040;29;20043;-91
2022/03/16 11:26:13;;;;;;;0.68;0.40;;;;;;;;;;4941187;29;20048;-93
2022/03/16 11:28:50;;;;;;;1.02;1.02;;;;;;;;;;4924987;29;20094;-93
2022/03/16 11:31:16;;;;;;;0.10;0.10;;;;;;;;;;4924670;29;20062;-92
2022/03/16 11:33:48;;;;;;;0.20;0.20;;;;;;;;;;4940885;29;20046;-92
2022/03/16 11:36:27;;;;;;;0.20;0.20;;;;;;;;;;4924599;29;20051;-90
2022/03/16 11:38:53;;;;;;;0.63;0.63;;;;;;;;;;4924858;29;20102;-90
2022/03/16 11:41:25;;;;;;;2.28;0.40;;;;;;;;;;4924650;29;20063;-90
2022/03/16 11:44:24;;;;;;;0.30;0.30;;;;;;;;;;4924714;29;20039;-91
2022/03/16 11:46:50;;;;;;;0.45;0.45;;;;;;;;;;4939751;29;20047;-91
2022/03/16 11:49:26;;;;;;;0.40;0.40;;;;;;;;;;4924826;29;20105;-92
2022/03/16 11:52:01;;;;;;;0.43;0.43;;;;;;;;;;4924752;29;20039;-93
2022/03/16 11:54:40;;;;;;;0.20;0.20;;;;;;;;;;4924653;28;20399;-93
2022/03/16 11:57:06;;;;;;;0.45;0.45;;;;;;;;;;4924338;29;20101;-92
2022/03/16 11:59:32;;;;;;;0.22;0.20;;;;;;;;;;4924769;29;20131;-91
2022/03/16 12:02:05;;;;;;;0.43;0.43;;;;;;;;;;4924763;29;20043;-93
2022/03/16 12:04:31;;;;;;;;;;;;;;;;;;4925399;28;20145;-91
2022/03/16 12:07:09;;;;;;;0.10;0.10;;;;;;;;;;4939582;29;19918;-90
2022/03/16 12:09:49;;;;;;;0.32;0.32;;;;;;;;;;4925133;29;20058;-90
2022/03/16 12:15:19;;;;;;;0.40;0.35;;;;;;;;;;4926511;29;20499;-91
2022/03/16 12:17:51;;;;;;;0.55;0.28;;;;;;;;;;4939581;29;20046;-90
2022/03/16 12:20:24;;;;;;;0.22;0.22;;;;;;;;;;4939990;29;20050;-90
2022/03/16 12:22:54;;;;;;;0.30;0.30;;;;;;;;;;4939930;29;20147;-93
2022/03/16 12:25:32;;;;;;;1.10;0.47;;;;;;;;;;4924268;29;20040;-91
2022/03/16 12:30:58;;;;;;;0.75;0.75;;;;;;;;;;4925610;29;20489;-90
2022/03/16 12:33:28;;;;;;;0.35;0.35;;;;;;;;;;4923395;29;20114;-90
2022/03/16 12:35:54;;;;;;;0.32;0.32;;;;;;;;;;4923833;29;20482;-91
2022/03/16 12:38:21;;;;;;;0.40;0.40;;;;;;;;;;4923628;29;20043;-91
2022/03/16 12:43:32;;;;;;;0.43;0.10;;;;;;;;;;4939465;29;20050;-91
2022/03/16 12:46:18;;;;;;;0.20;0.20;;;;;;;;;;4923946;29;20043;-90
2022/03/16 12:48:47;;;;;;;0.20;0.20;;;;;;;;;;4923665;29;20046;-91
2022/03/16 12:51:18;;;;;;;0.75;0.75;;;;;;;;;;4924010;29;20035;-90
2022/03/16 12:53:46;;;;;;;0.47;0.47;;;;;;;;;;4924264;29;20048;-90
2022/03/16 12:56:15;;;;;;;0.40;0.40;;;;;;;;;;4924087;29;20443;-91
2022/03/16 12:58:41;;;;;;;0.10;0.10;;;;;;;;;;4924201;29;20134;-90
2022/03/16 13:01:16;;;;;;;0.47;0.47;;;;;;;;;;4923389;29;20054;-91
2022/03/16 13:03:43;;;;;;;1.75;0.95;;;;;;;;;;4939834;29;20053;-90
2022/03/16 13:06:32;;;;;;;0.20;0.20;;;;;;;;;;4938853;29;20384;-91
2022/03/16 13:08:58;;;;;;;0.20;0.20;;;;;;;;;;4920928;29;20429;-91
2022/03/16 13:11:25;;;;;;;1.45;1.30;;;;;;;;;;4920286;29;20043;-90
2022/03/16 13:14:07;;;;;;;0.20;0.20;;;;;;;;;;4936043;29;20491;-91
2022/03/16 13:16:40;;;;;;;0.20;0.20;;;;;;;;;;4935551;29;20043;-90
2022/03/16 13:19:10;;;;;;;0.38;0.38;;;;;;;;;;4920158;29;20077;-91
2022/03/16 13:21:36;;;;;;;0.10;0.10;;;;;;;;;;4919742;29;20178;-90
2022/03/16 13:24:06;;;;;;;1.02;0.85;;;;;;;;;;4919724;29;20126;-91
2022/03/16 13:26:33;;;;;;;0.10;0.10;;;;;;;;;;4919348;29;20044;-91
2022/03/16 13:28:59;;;;;;;0.55;0.20;;;;;;;;;;4919901;29;20040;-90
2022/03/16 13:31:26;;;;;;;0.10;0.10;;;;;;;;;;4919706;29;20176;-90
2022/03/16 13:33:52;;;;;;;0.50;0.50;;;;;;;;;;4919529;29;20035;-92
2022/03/16 13:36:18;;;;;;;0.17;0.17;;;;;;;;;;4919554;29;20039;-92
2022/03/16 13:38:47;;;;;;;0.30;0.30;;;;;;;;;;4919334;29;20111;-91
2022/03/16 13:41:13;;;;;;;3.05;0.38;;;;;;;;;;4919851;29;20400;-92
2022/03/16 13:43:39;;;;;;;0.30;0.30;;;;;;;;;;4919229;29;20075;-92
2022/03/16 13:46:10;;;;;;;0.20;0.20;;;;;;;;;;4918695;29;20410;-92
2022/03/16 13:48:40;;;;;;;0.32;0.32;;;;;;;;;;4919794;29;20040;-91
2022/03/16 13:51:06;;;;;;;0.20;0.20;;;;;;;;;;4935068;29;20480;-91
2022/03/16 13:53:42;;;;;;;0.65;0.30;;;;;;;;;;4920291;29;20119;-92
2022/03/16 13:56:12;;;;;;;0.20;0.20;;;;;;;;;;4935571;29;20051;-91
2022/03/16 13:58:38;;;;;;;0.40;0.40;;;;;;;;;;4919993;29;20044;-92
2022/03/16 14:01:04;;;;;;;0.45;0.45;;;;;;;;;;4919557;29;20083;-93
2022/03/16 14:03:31;;;;;;;0.15;0.15;;;;;;;;;;4919394;29;20091;-92
2022/03/16 14:05:57;;;;;;;0.20;0.20;;;;;;;;;;4919410;29;20044;-93
2022/03/16 14:08:24;;;;;;;0.22;0.22;;;;;;;;;;4935414;29;20087;-90
2022/03/16 14:10:51;;;;;;;0.20;0.20;;;;;;;;;;4919229;29;20043;-93
2022/03/16 14:13:17;;;;;;;0.60;0.55;;;;;;;;;;4920139;29;20488;-92
2022/03/16 14:15:46;;;;;;;0.38;0.38;;;;;;;;;;4920805;29;20482;-93
2022/03/16 14:18:18;;;;;;;0.85;0.63;;;;;;;;;;4922039;29;20470;-92
2022/03/16 14:20:45;;;;;;;0.20;0.20;;;;;;;;;;4920133;29;20103;-95
2022/03/16 14:23:11;;;;;;;0.40;0.40;;;;;;;;;;4920897;29;20371;-95
2022/03/16 14:25:37;;;;;;;0.25;0.25;;;;;;;;;;4920570;29;20043;-94
2022/03/16 14:28:04;;;;;;;0.20;0.20;;;;;;;;;;4919857;29;20051;-93
2022/03/16 14:30:31;;;;;;;0.10;0.10;;;;;;;;;;4918943;29;20051;-92
2022/03/16 14:33:01;;;;;;;0.68;0.68;;;;;;;;;;4918986;29;20567;-92
2022/03/16 14:35:28;;;;;;;0.95;0.40;;;;;;;;;;4918945;29;20044;-91
2022/03/16 14:37:54;;;;;;;5.22;0.82;;;;;;;;;;4918615;29;20047;-93
2022/03/16 14:40:22;;;;;;;0.40;0.40;;;;;;;;;;4919302;29;20487;-94
2022/03/16 14:43:13;;;;;;;0.47;0.47;;;;;;;;;;4919552;29;20083;-94
2022/03/16 14:45:40;;;;;;;0.60;0.30;;;;;;;;;;4934869;29;20055;-94
2022/03/16 14:48:08;;;;;;;0.20;0.20;;;;;;;;;;4919313;29;20070;-95
2022/03/16 14:50:34;;;;;;;0.35;0.35;;;;;;;;;;4919016;29;20472;-93
2022/03/16 14:53:00;;;;;;;0.20;0.20;;;;;;;;;;4919716;29;20040;-96
2022/03/16 14:55:26;;;;;;;0.90;0.40;;;;;;;;;;4923126;29;20329;-94
2022/03/16 14:57:53;;;;;;;0.20;0.20;;;;;;;;;;4922721;29;20051;-94
2022/03/16 15:00:19;;;;;;;0.10;0.10;;;;;;;;;;4922954;29;20499;-95
2022/03/16 15:02:46;;;;;;;0.10;0.10;;;;;;;;;;4923014;29;20503;-94
2022/03/16 15:05:12;;;;;;;0.35;0.35;;;;;;;;;;4922589;29;20079;-95
2022/03/16 15:07:38;;;;;;;0.30;0.30;;;;;;;;;;4922840;29;20052;-95
2022/03/16 15:10:04;;;;;;;0.80;0.38;;;;;;;;;;4922492;29;20050;-95